Flight Track Log - Related Links

Times and Time Zones

All times are in EDT time to prevent confusion due to time zone crossing. See the UPS2984 flight status page for this flight to view local times or setup timezone preferences in your user account.

Time Position Orientation Groundspeed Altitude Reporting Facility
EDT Latitude Longitude Course Direction KTS MPH feet Rate Location/Type
Mon 03:39:27 PM 38.1580 -85.7390 161° South 160 184 1,200  Level FlightAware ADS-B
Mon 03:39:57 PM 38.1330 -85.7320 168° South 197 227 2,100 1,855 Climbing FlightAware ADS-B
Mon 03:40:22 PM 38.1080 -85.7330 182° South 234 269 2,900 2,550 Climbing FlightAware ADS-B
Mon 03:40:37 PM 38.0920 -85.7350 186° South 238 274 3,800 3,400 Climbing FlightAware ADS-B
Mon 03:40:52 PM 38.0780 -85.7460 212° Southwest 252 290 4,600 3,200 Climbing FlightAware ADS-B
Mon 03:41:07 PM 38.0670 -85.7660 235° Southwest 268 308 5,400 3,600 Climbing FlightAware ADS-B
Mon 03:41:17 PM 38.0640 -85.7810 256° West 268 308 6,100 4,080 Climbing FlightAware ADS-B
Mon 03:41:32 PM 38.0660 -85.8040 276° West 274 315 7,100 3,733 Climbing FlightAware ADS-B
Mon 03:42:02 PM 38.0740 -85.8510 282° West 284 327 8,900 3,600 Climbing FlightAware ADS-B
Mon 03:42:12 PM 38.0750 -85.8690 274° West 287 330 9,500 2,880 Climbing FlightAware ADS-B
Mon 03:42:52 PM 38.0740 -85.9370 269° West 317 365 11,300 2,667 Climbing FlightAware ADS-B
Mon 03:43:42 PM 38.0850 -86.0390 278° West 362 417 13,500 2,733 Climbing FlightAware ADS-B
Mon 03:44:22 PM 38.0960 -86.1240 279° West 381 438 15,400 3,150 Climbing FlightAware ADS-B
Mon 03:45:02 PM 38.1080 -86.2150 280° West 392 451 17,700 3,247 Climbing FlightAware ADS-B
Mon 03:45:47 PM 38.1210 -86.3200 279° West 402 463 20,000 2,753 Climbing FlightAware ADS-B
Mon 03:46:27 PM 38.1300 -86.4080 277° West 413 475 21,600 2,463 Climbing FlightAware ADS-B
Mon 03:47:22 PM 38.1460 -86.5490 278° West 428 493 23,900 2,526 Climbing FlightAware ADS-B
Mon 03:48:02 PM 38.1580 -86.6490 279° West 434 499 25,600 2,400 Climbing FlightAware ADS-B
Mon 03:48:47 PM 38.1710 -86.7650 278° West 443 510 27,300 2,259 Climbing FlightAware ADS-B
Mon 03:49:27 PM 38.1830 -86.8650 279° West 444 511 28,800 1,835 Climbing FlightAware ADS-B
Mon 03:50:12 PM 38.1960 -86.9840 278° West 455 524 29,900 1,271 Climbing FlightAware ADS-B
Mon 03:50:52 PM 38.2080 -87.0910 278° West 450 518 30,600 1,906 Climbing FlightAware ADS-B
Mon 03:51:37 PM 38.2210 -87.2030 278° West 438 504 32,600 1,624 Climbing FlightAware ADS-B
Mon 03:52:17 PM 38.2330 -87.3090 278° West 445 512 32,900 900 Climbing FlightAware ADS-B
Mon 03:52:57 PM 38.2430 -87.4080 277° West 435 501 33,800 2,047 Climbing FlightAware ADS-B
Mon 03:53:42 PM 38.2550 -87.5200 278° West 414 476 35,800 1,553 Climbing FlightAware ADS-B
Mon 03:54:22 PM 38.2660 -87.6170 278° West 408 470 36,000 150 Climbing FlightAware ADS-B
Mon 03:55:02 PM 38.2760 -87.7120 278° West 407 468 36,000  Level FlightAware ADS-B
Mon 03:55:47 PM 38.2870 -87.8200 277° West 409 471 36,000  Level FlightAware ADS-B
Mon 03:56:27 PM 38.2970 -87.9150 278° West 408 470 36,000  Level FlightAware ADS-B
Mon 03:57:12 PM 38.3080 -88.0200 278° West 407 468 36,000  Level FlightAware ADS-B
Mon 03:57:52 PM 38.3180 -88.1150 278° West 407 468 36,000  Level FlightAware ADS-B
Mon 03:58:37 PM 38.3290 -88.2200 278° West 406 467 36,000  Level FlightAware ADS-B
Mon 03:59:17 PM 38.3380 -88.3170 277° West 406 467 36,000  Level FlightAware ADS-B
Mon 03:59:57 PM 38.3480 -88.4090 278° West 405 466 36,000  Level FlightAware ADS-B
Mon 04:00:42 PM 38.3580 -88.5150 277° West 405 466 36,000  Level FlightAware ADS-B
Mon 04:01:22 PM 38.3670 -88.6090 277° West 404 465 36,000  Level FlightAware ADS-B
Mon 04:02:07 PM 38.3780 -88.7180 277° West 403 464 36,000  Level FlightAware ADS-B
Mon 04:02:47 PM 38.3870 -88.8110 277° West 403 464 36,000  Level FlightAware ADS-B
Mon 04:03:27 PM 38.3960 -88.9060 277° West 402 463 36,000  Level FlightAware ADS-B
Mon 04:04:12 PM 38.4060 -89.0090 277° West 401 461 36,000  Level FlightAware ADS-B
Mon 04:04:52 PM 38.4150 -89.1070 277° West 401 461 36,000  Level FlightAware ADS-B
Mon 04:05:37 PM 38.4350 -89.2040 285° West 401 461 36,000  Level FlightAware ADS-B
Mon 04:06:17 PM 38.4660 -89.2910 294° West 402 463 36,000  Level FlightAware ADS-B
Mon 04:06:57 PM 38.5060 -89.3730 302° West 404 465 36,000  Level FlightAware ADS-B
Mon 04:07:42 PM 38.5500 -89.4600 303° West 402 463 36,000  Level FlightAware ADS-B
Mon 04:08:22 PM 38.5920 -89.5410 304° West 403 464 36,000  Level FlightAware ADS-B
Mon 04:09:02 PM 38.6320 -89.6190 303° West 403 464 36,000  Level FlightAware ADS-B
Mon 04:09:47 PM 38.6730 -89.7010 303° West 403 464 36,000  Level FlightAware ADS-B
Mon 04:10:27 PM 38.7080 -89.7690 303° West 403 464 36,000  Level FlightAware ADS-B
Mon 04:11:12 PM 38.7630 -89.8740 304° West 407 468 36,000  Level FlightAware ADS-B
Mon 04:11:52 PM 38.7970 -89.9430 302° West 407 468 36,000  Level FlightAware ADS-B
Mon 04:12:47 PM 38.8640 -90.0730 304° West 411 473 36,000  Level FlightAware ADS-B
Mon 04:13:27 PM 38.9070 -90.1580 303° West 413 475 36,000  Level FlightAware ADS-B
Mon 04:14:12 PM 38.9470 -90.2410 302° West 413 475 36,000  Level FlightAware ADS-B
Mon 04:14:52 PM 38.9960 -90.3340 304° West 414 476 36,000  Level FlightAware ADS-B
Mon 04:15:37 PM 39.0400 -90.4220 303° West 415 478 36,000  Level FlightAware ADS-B
Mon 04:16:17 PM 39.0820 -90.5060 303° West 416 479 36,000  Level FlightAware ADS-B
Mon 04:17:02 PM 39.1310 -90.6060 302° West 416 479 36,000  Level FlightAware ADS-B
Mon 04:17:37 PM 39.1620 -90.6680 303° West 416 479 36,000  Level FlightAware ADS-B
Mon 04:18:22 PM 39.2130 -90.7700 303° West 416 479 36,000  Level FlightAware ADS-B
Mon 04:19:07 PM 39.2550 -90.8570 302° West 415 478 36,000  Level FlightAware ADS-B
Mon 04:19:47 PM 39.2900 -90.9290 302° West 415 478 36,000  Level FlightAware ADS-B
Mon 04:20:27 PM 39.3390 -91.0270 303° West 413 475 36,000  Level FlightAware ADS-B
Mon 04:21:12 PM 39.3870 -91.1240 303° West 412 474 36,000  Level FlightAware ADS-B
Mon 04:21:52 PM 39.4270 -91.2070 302° West 411 473 36,000  Level FlightAware ADS-B
Mon 04:22:37 PM 39.4710 -91.2960 303° West 410 472 36,000  Level FlightAware ADS-B
Mon 04:23:32 PM 39.5240 -91.4090 301° West 410 472 36,000  Level FlightAware ADS-B
Mon 04:24:12 PM 39.5570 -91.4800 301° West 410 472 36,000  Level FlightAware ADS-B
Mon 04:24:52 PM 39.6080 -91.5800 304° West 411 473 36,000  Level FlightAware ADS-B
Mon 04:25:52 PM 39.6630 -91.6970 301° West 412 474 36,000  Level FlightAware ADS-B
Mon 04:26:32 PM 39.7060 -91.7860 302° West 413 475 36,000  Level FlightAware ADS-B
Mon 04:27:22 PM 39.7550 -91.8880 302° West 413 475 36,000  Level FlightAware ADS-B
Mon 04:28:12 PM 39.8080 -91.9990 302° West 409 471 36,000  Level FlightAware ADS-B
Mon 04:28:47 PM 39.8410 -92.0690 302° West 408 470 36,000  Level FlightAware ADS-B
Mon 04:29:37 PM 39.8930 -92.1770 302° West 404 465 36,000  Level FlightAware ADS-B
Mon 04:30:17 PM 39.9310 -92.2580 301° West 403 464 36,000  Level FlightAware ADS-B
Mon 04:30:57 PM 39.9700 -92.3420 301° West 401 461 36,000  Level FlightAware ADS-B
Mon 04:31:37 PM 40.0080 -92.4240 301° West 398 458 36,000  Level FlightAware ADS-B
Mon 04:32:22 PM 40.0520 -92.5160 302° West 396 456 36,000  Level FlightAware ADS-B
Mon 04:33:07 PM 40.0930 -92.6060 301° West 393 452 36,000  Level FlightAware ADS-B
Mon 04:33:52 PM 40.1370 -92.6990 302° West 391 450 36,000  Level FlightAware ADS-B
Mon 04:34:32 PM 40.1740 -92.7790 301° West 391 450 36,000  Level FlightAware ADS-B
Mon 04:35:12 PM 40.2110 -92.8600 301° West 389 448 36,000  Level FlightAware ADS-B
Mon 04:35:52 PM 40.2490 -92.9410 302° West 388 447 36,000  Level FlightAware ADS-B
Mon 04:36:37 PM 40.2910 -93.0330 301° West 388 447 36,000  Level FlightAware ADS-B
Mon 04:37:22 PM 40.3290 -93.1150 301° West 387 445 36,000  Level FlightAware ADS-B
Mon 04:38:02 PM 40.3680 -93.2020 300° West 386 444 36,000  Level FlightAware ADS-B
Mon 04:38:42 PM 40.4030 -93.2770 302° West 387 445 36,000  Level FlightAware ADS-B
Mon 04:39:27 PM 40.4470 -93.3750 301° West 387 445 36,000  Level FlightAware ADS-B
Mon 04:40:07 PM 40.4840 -93.4550 301° West 388 447 36,000  Level FlightAware ADS-B
Mon 04:40:52 PM 40.5240 -93.5450 300° West 390 449 36,000  Level FlightAware ADS-B
Mon 04:41:27 PM 40.5530 -93.6100 300° West 390 449 36,000  Level FlightAware ADS-B
Mon 04:42:27 PM 40.6090 -93.7340 301° West 391 450 36,000  Level FlightAware ADS-B
Mon 04:43:07 PM 40.6440 -93.8120 301° West 392 451 36,000  Level FlightAware ADS-B
Mon 04:43:47 PM 40.6750 -93.8830 300° West 392 451 36,000  Level FlightAware ADS-B
Mon 04:44:27 PM 40.7050 -93.9530 299° West 392 451 36,000  Level FlightAware ADS-B
Mon 04:45:17 PM 40.7670 -94.0870 301° West 397 457 36,000  Level FlightAware ADS-B
Mon 04:45:57 PM 40.8040 -94.1710 300° West 398 458 36,000  Level FlightAware ADS-B
Mon 04:46:42 PM 40.8470 -94.2670 301° West 399 459 36,000  Level FlightAware ADS-B
Mon 04:47:32 PM 40.8900 -94.3670 300° West 398 458 36,000  Level FlightAware ADS-B
Mon 04:48:12 PM 40.9200 -94.4390 299° West 398 458 36,000  Level FlightAware ADS-B
Mon 04:49:02 PM 40.9580 -94.5300 299° West 398 458 36,000  Level FlightAware ADS-B
Mon 04:49:42 PM 40.9880 -94.6020 299° West 398 458 36,000  Level FlightAware ADS-B
Mon 04:50:22 PM 41.0180 -94.6750 299° West 398 458 36,000  Level FlightAware ADS-B
Mon 04:51:02 PM 41.0490 -94.7480 299° West 398 458 36,000  Level FlightAware ADS-B
Mon 04:51:42 PM 41.0790 -94.8200 299° West 398 458 36,000  Level FlightAware ADS-B
Mon 04:52:32 PM 41.1170 -94.9110 299° West 398 458 36,000  Level FlightAware ADS-B
Mon 04:53:12 PM 41.1470 -94.9840 299° West 398 458 36,000  Level FlightAware ADS-B
Mon 04:53:52 PM 41.1780 -95.0560 300° West 398 458 36,000  Level FlightAware ADS-B
Mon 04:54:32 PM 41.2080 -95.1290 299° West 398 458 36,000  Level FlightAware ADS-B
Mon 04:55:12 PM 41.2380 -95.2020 299° West 398 458 36,000  Level FlightAware ADS-B
Mon 04:55:52 PM 41.2690 -95.2750 299° West 398 458 36,000  Level FlightAware ADS-B
Mon 04:57:01 PM 41.4158 -95.5858 299° West 408 470 36,000  Level Minneapolis Center
Mon 04:58:03 PM 41.4714 -95.7181 299° West 408 470 36,000  Level Minneapolis Center
Mon 04:59:05 PM 41.5269 -95.8500 299° West 408 470 36,000  Level Minneapolis Center
Mon 05:00:08 PM 41.5931 -96.0089 299° West 407 468 36,000  Level Minneapolis Center
Mon 05:01:10 PM 41.6469 -96.1386 299° West 409 471 36,000  Level Minneapolis Center
Mon 05:02:12 PM 41.6994 -96.2653 299° West 410 472 36,000  Level Minneapolis Center
Mon 05:03:14 PM 41.7542 -96.3981 299° West 411 473 36,000  Level Minneapolis Center
Mon 05:04:15 PM 41.8197 -96.5586 299° West 410 472 36,000  Level Minneapolis Center
Mon 05:05:17 PM 41.8744 -96.6925 299° West 411 473 36,000  Level Minneapolis Center
Mon 05:06:19 PM 41.9289 -96.8272 299° West 413 475 36,000  Level Minneapolis Center
Mon 05:07:21 PM 41.9839 -96.9631 299° West 414 476 36,000  Level Minneapolis Center
Mon 05:08:23 PM 42.0386 -97.0989 299° West 414 476 36,000  Level Minneapolis Center
Mon 05:09:25 PM 42.0928 -97.2347 298° West 413 475 36,000  Level Minneapolis Center
Mon 05:10:26 PM 42.1578 -97.3978 298° West 413 475 36,000  Level Minneapolis Center
Mon 05:11:28 PM 42.2119 -97.5344 298° West 412 474 36,000  Level Minneapolis Center
Mon 05:12:30 PM 42.2656 -97.6706 298° West 412 474 36,000  Level Minneapolis Center
Mon 05:13:32 PM 42.3189 -97.8067 298° West 411 473 36,000  Level Minneapolis Center
Mon 05:14:34 PM 42.3767 -97.9544 298° West 410 472 36,000  Level Minneapolis Center
Mon 05:15:36 PM 42.4294 -98.0906 298° West 410 472 36,000  Level Minneapolis Center
Mon 05:16:37 PM 42.4822 -98.2272 298° West 410 472 36,000  Level Minneapolis Center
Mon 05:17:39 PM 42.5347 -98.3639 298° West 410 472 36,000  Level Minneapolis Center
Mon 05:18:41 PM 42.5875 -98.5006 298° West 410 472 36,000  Level Minneapolis Center
Mon 05:19:43 PM 42.6394 -98.6383 297° West 410 472 36,000  Level Minneapolis Center
Mon 05:20:45 PM 42.7022 -98.8033 297° West 410 472 36,000  Level Minneapolis Center
Mon 05:21:46 PM 42.7544 -98.9417 297° West 415 478 36,000  Level Minneapolis Center
Mon 05:22:48 PM 42.8067 -99.0808 297° West 414 476 36,000  Level Minneapolis Center
Mon 05:23:50 PM 42.8586 -99.2203 297° West 414 476 36,000  Level Minneapolis Center
Mon 05:24:52 PM 42.9108 -99.3603 297° West 413 475 36,000  Level Minneapolis Center
Mon 05:25:53 PM 42.9625 -99.5003 297° West 413 475 36,000  Level Minneapolis Center
Mon 05:26:55 PM 43.0139 -99.6403 297° West 412 474 36,000  Level Minneapolis Center
Mon 05:27:57 PM 43.0683 -99.7886 297° West 413 475 36,000  Level Minneapolis Center
Mon 05:28:59 PM 43.1194 -99.9294 296° West 413 475 36,000  Level Minneapolis Center
Mon 05:30:01 PM 43.1806 -100.0981 296° West 412 474 36,000  Level Minneapolis Center
Mon 05:31:03 PM 43.2311 -100.2389 296° West 411 473 36,000  Level Minneapolis Center
Mon 05:32:04 PM 43.2814 -100.3794 296° West 410 472 36,000  Level Minneapolis Center
Mon 05:32:49 PM 43.3203 -100.4908 296° West 413 475 36,000  Level Denver Center
Mon 05:33:50 PM 43.3603 -100.5994 297° West 404 465 36,000  Level Denver Center
Mon 05:34:20 PM 43.3914 -100.6886 296° West 408 470 36,000  Level Minneapolis Center
Mon 05:35:22 PM 43.4408 -100.8289 296° West 407 468 36,000  Level Minneapolis Center
Mon 05:35:54 PM 43.4694 -100.9100 296° West 408 470 36,000  Level Denver Center
Mon 05:36:56 PM 43.5175 -101.0503 295° West 406 467 36,000  Level Denver Center
Mon 05:37:57 PM 43.5572 -101.1633 296° West 407 468 36,000  Level Denver Center
Mon 05:38:59 PM 43.6158 -101.3319 296° West 406 467 36,000  Level Denver Center
Mon 05:40:01 PM 43.6650 -101.4750 295° West 410 472 36,000  Level Denver Center
Mon 05:41:02 PM 43.7131 -101.6156 295° West 406 467 36,000  Level Denver Center
Mon 05:42:04 PM 43.7711 -101.7856 295° West 406 467 36,000  Level Denver Center
Mon 05:43:06 PM 43.8183 -101.9250 295° West 402 463 36,000  Level Denver Center
Mon 05:44:07 PM 43.8653 -102.0667 295° West 402 463 36,000  Level Denver Center
Mon 05:45:09 PM 43.9108 -102.2058 294° West 399 459 36,000  Level Denver Center
Mon 05:46:11 PM 43.9569 -102.3472 294° West 398 458 36,000  Level Denver Center
Mon 05:47:12 PM 44.0056 -102.4892 296° West 403 464 36,000  Level Denver Center
Mon 05:48:14 PM 44.0536 -102.6344 295° West 410 472 36,000  Level Denver Center
Mon 05:49:16 PM 44.1017 -102.7783 295° West 410 472 36,000  Level Denver Center
Mon 05:50:17 PM 44.1572 -102.9492 294° West 412 474 36,000  Level Denver Center
Mon 05:51:19 PM 44.2067 -103.0994 295° West 414 476 36,000  Level Denver Center
Mon 05:52:21 PM 44.2558 -103.2514 294° West 413 475 36,000  Level Denver Center
Mon 05:53:23 PM 44.3000 -103.3925 294° West 414 476 36,000  Level Denver Center
Mon 05:54:24 PM 44.3522 -103.5575 294° West 416 479 36,000  Level Denver Center
Mon 05:55:26 PM 44.3981 -103.6997 294° West 419 482 36,000  Level Denver Center
Mon 05:56:28 PM 44.4422 -103.8425 293° West 418 481 36,000  Level Denver Center
Mon 05:57:30 PM 44.4950 -104.0100 294° West 421 484 36,000  Level Denver Center
Mon 05:58:31 PM 44.5397 -104.1528 294° West 419 482 36,000  Level Denver Center
Mon 05:59:33 PM 44.5917 -104.3206 294° West 420 483 36,000  Level Denver Center
Mon 06:00:10 PM 44.6217 -104.4153 294° West 421 484 36,000  Level Salt Lake Center
Mon 06:00:35 PM 44.6353 -104.4642 291° West 419 482 36,000  Level Denver Center
Mon 06:01:36 PM 44.6872 -104.6331 293° West 421 484 36,000  Level Denver Center
Mon 06:02:38 PM 44.7303 -104.7781 293° West 421 484 36,000  Level Denver Center
Mon 06:03:40 PM 44.7781 -104.9322 294° West 421 484 36,000  Level Denver Center
Mon 06:04:42 PM 44.8286 -105.1019 293° West 422 486 36,000  Level Denver Center
Mon 06:05:43 PM 44.8719 -105.2481 293° West 422 486 36,000  Level Denver Center
Mon 06:06:45 PM 44.9156 -105.3933 293° West 421 484 36,000  Level Denver Center
Mon 06:07:47 PM 44.9658 -105.5644 293° West 422 486 36,000  Level Denver Center
Mon 06:08:48 PM 45.0089 -105.7111 293° West 422 486 36,000  Level Denver Center
Mon 06:09:50 PM 45.0444 -105.8331 292° West 422 486 36,000  Level Denver Center
Mon 06:10:24 PM 45.0783 -105.9550 292° West 420 483 36,000  Level Salt Lake Center
Mon 06:11:26 PM 45.1067 -106.1347 283° West 419 482 36,000  Level Salt Lake Center
Mon 06:12:27 PM 45.1333 -106.2861 284° West 416 479 36,000  Level Salt Lake Center
Mon 06:13:29 PM 45.1622 -106.4644 283° West 416 479 36,000  Level Salt Lake Center
Mon 06:14:30 PM 45.1883 -106.6161 284° West 416 479 36,000  Level Salt Lake Center
Mon 06:15:32 PM 45.2128 -106.7697 283° West 418 481 36,000  Level Salt Lake Center
Mon 06:16:34 PM 45.2422 -106.9456 283° West 413 475 36,000  Level Salt Lake Center
Mon 06:17:35 PM 45.2664 -107.0978 283° West 415 478 36,000  Level Salt Lake Center
Mon 06:18:37 PM 45.2933 -107.2747 282° West 412 474 36,000  Level Salt Lake Center
Mon 06:19:38 PM 45.3178 -107.4297 283° West 418 481 36,000  Level Salt Lake Center
Mon 06:20:40 PM 45.3458 -107.6086 283° West 417 480 36,000  Level Salt Lake Center
Mon 06:21:41 PM 45.3703 -107.7617 283° West 418 481 36,000  Level Salt Lake Center
Mon 06:22:43 PM 45.3936 -107.9153 282° West 417 480 36,000  Level Salt Lake Center
Mon 06:23:44 PM 45.4206 -108.0961 282° West 422 486 36,000  Level Salt Lake Center
Mon 06:24:46 PM 45.4433 -108.2497 282° West 417 480 36,000  Level Salt Lake Center
Mon 06:25:47 PM 45.4711 -108.4311 282° West 420 483 36,000  Level Salt Lake Center
Mon 06:26:49 PM 45.4931 -108.5858 281° West 418 481 36,000  Level Salt Lake Center
Mon 06:27:50 PM 45.5197 -108.7683 282° West 421 484 36,000  Level Salt Lake Center
Mon 06:28:52 PM 45.5425 -108.9244 282° West 421 484 36,000  Level Salt Lake Center
Mon 06:29:53 PM 45.5642 -109.0828 281° West 426 490 36,000  Level Salt Lake Center
Mon 06:30:55 PM 45.5908 -109.2672 282° West 426 490 36,000  Level Salt Lake Center
Mon 06:31:56 PM 45.6122 -109.4244 281° West 423 487 36,000  Level Salt Lake Center
Mon 06:32:58 PM 45.6378 -109.6114 281° West 430 495 36,000  Level Salt Lake Center
Mon 06:33:59 PM 45.6594 -109.7689 281° West 424 488 36,000  Level Salt Lake Center
Mon 06:35:01 PM 45.6839 -109.9575 281° West 432 497 36,000  Level Salt Lake Center
Mon 06:36:02 PM 45.7050 -110.1183 281° West 430 495 36,000  Level Salt Lake Center
Mon 06:37:04 PM 45.7256 -110.2794 280° West 430 495 36,000  Level Salt Lake Center
Mon 06:38:05 PM 45.7508 -110.4678 281° West 432 497 36,000  Level Salt Lake Center
Mon 06:39:07 PM 45.7708 -110.6275 280° West 426 490 36,000  Level Salt Lake Center
Mon 06:40:10 PM 45.7914 -110.7969 280° West 431 496 36,000  Level Salt Lake Center
Mon 06:41:10 PM 45.8117 -110.9658 280° West 433 498 36,000  Level Salt Lake Center
Mon 06:42:11 PM 45.8364 -111.1603 280° West 431 496 36,000  Level Salt Lake Center
Mon 06:43:13 PM 45.8556 -111.3253 280° West 433 498 36,000  Level Salt Lake Center
Mon 06:44:14 PM 45.8758 -111.4956 280° West 433 498 36,000  Level Salt Lake Center
Mon 06:45:16 PM 45.8956 -111.6667 279° West 436 502 36,000  Level Salt Lake Center
Mon 06:46:17 PM 45.9158 -111.8383 280° West 436 502 36,000  Level Salt Lake Center
Mon 06:47:19 PM 45.9344 -112.0092 279° West 435 501 36,000  Level Salt Lake Center
Mon 06:48:20 PM 45.9539 -112.1808 279° West 435 501 36,000  Level Salt Lake Center
Mon 06:49:22 PM 45.9769 -112.3867 279° West 435 501 36,000  Level Salt Lake Center
Mon 06:50:23 PM 45.9956 -112.5586 279° West 435 501 36,000  Level Salt Lake Center
Mon 06:51:25 PM 46.0136 -112.7306 279° West 435 501 36,000  Level Salt Lake Center
Mon 06:52:26 PM 46.0333 -112.9019 279° West 436 502 36,000  Level Salt Lake Center
Mon 06:53:28 PM 46.0506 -113.0744 278° West 435 501 36,000  Level Salt Lake Center
Mon 06:54:29 PM 46.0681 -113.2461 278° West 434 499 36,000  Level Salt Lake Center
Mon 06:55:31 PM 46.0881 -113.4200 279° West 439 505 36,000  Level Salt Lake Center
Mon 06:56:32 PM 46.1044 -113.5922 278° West 435 501 36,000 -49 Level Salt Lake Center
Mon 06:57:34 PM 46.1211 -113.7686 278° West 434 499 35,900 -49 Descending Salt Lake Center
Mon 06:58:35 PM 46.1381 -113.9408 278° West 435 501 35,900  Level Salt Lake Center
Mon 06:59:37 PM 46.1542 -114.1136 278° West 437 503 35,900  Level Salt Lake Center
Mon 07:00:39 PM 46.1733 -114.3208 278° West 436 502 35,900  Level Salt Lake Center
Mon 07:01:40 PM 46.1886 -114.4906 277° West 430 495 35,900  Level Salt Lake Center
Mon 07:02:42 PM 46.2044 -114.6622 278° West 431 496 35,900  Level Salt Lake Center
Mon 07:03:43 PM 46.2192 -114.8336 277° West 430 495 35,900  Level Salt Lake Center
Mon 07:04:45 PM 46.2342 -115.0064 277° West 434 499 35,900  Level Salt Lake Center
Mon 07:05:46 PM 46.2500 -115.1919 277° West 434 499 35,900  Level Salt Lake Center
Mon 07:06:48 PM 46.2639 -115.3622 277° West 431 496 35,900  Level Salt Lake Center
Mon 07:07:49 PM 46.2786 -115.5333 277° West 431 496 35,900  Level Salt Lake Center
Mon 07:08:51 PM 46.2919 -115.7061 276° West 432 497 35,900  Level Salt Lake Center
Mon 07:09:46 PM 46.3058 -115.8778 277° West 430 495 35,900  Level Seattle Center
Mon 07:10:47 PM 46.3186 -116.0497 276° West 432 497 35,900  Level Seattle Center
Mon 07:11:48 PM 46.3325 -116.2203 277° West 428 493 35,900  Level Seattle Center
Mon 07:12:49 PM 46.3442 -116.3894 276° West 424 488 35,900 49 Level Seattle Center
Mon 07:13:50 PM 46.3575 -116.5647 276° West 427 491 36,000  Climbing Seattle Center
Mon 07:14:51 PM 46.3694 -116.7306 276° West 426 490 35,900 -49 Descending Seattle Center
Mon 07:15:52 PM 46.3811 -116.9006 276° West 425 489 35,900  Level Seattle Center
Mon 07:16:53 PM 46.3928 -117.0719 276° West 426 490 35,900  Level Seattle Center
Mon 07:17:54 PM 46.4036 -117.2419 275° West 424 488 35,900  Level Seattle Center
Mon 07:18:55 PM 46.4147 -117.4089 276° West 419 482 35,900  Level Seattle Center
Mon 07:19:56 PM 46.4256 -117.5786 275° West 423 487 35,900  Level Seattle Center
Mon 07:20:57 PM 46.4378 -117.7789 275° West 417 480 35,900  Level Seattle Center
Mon 07:21:58 PM 46.4475 -117.9469 275° West 418 481 35,900  Level Seattle Center
Mon 07:22:59 PM 46.4581 -118.1133 275° West 414 476 35,900  Level Seattle Center
Mon 07:24:00 PM 46.4678 -118.2811 275° West 417 480 35,900 49 Level Seattle Center
Mon 07:25:01 PM 46.4767 -118.4492 274° West 418 481 36,000 49 Climbing Seattle Center
Mon 07:26:02 PM 46.4861 -118.6178 275° West 420 483 36,000 -49 Level Seattle Center
Mon 07:27:04 PM 46.4958 -118.7864 275° West 420 483 35,900 -49 Descending Seattle Center
Mon 07:28:05 PM 46.5042 -118.9544 274° West 418 481 35,900  Level Seattle Center
Mon 07:29:06 PM 46.5119 -119.1203 274° West 416 479 35,900  Level Seattle Center
Mon 07:30:07 PM 46.5194 -119.2833 274° West 408 470 35,900  Level Seattle Center
Mon 07:31:08 PM 46.5272 -119.4481 274° West 408 470 35,900  Level Seattle Center
Mon 07:32:09 PM 46.5356 -119.6097 274° West 404 465 35,900  Level Seattle Center
Mon 07:33:10 PM 46.5447 -119.8031 274° West 400 460 35,900 -344 Level Seattle Center
Mon 07:34:11 PM 46.5717 -119.9556 284° West 389 448 35,200 -1,721 Descending Seattle Center
Mon 07:35:12 PM 46.6058 -120.1031 289° West 387 445 32,400 -2,585 Descending Seattle Center
Mon 07:36:14 PM 46.6431 -120.2506 290° West 388 447 29,900 -2,293 Descending Seattle Center
Mon 07:37:15 PM 46.6783 -120.3956 290° West 381 438 27,700 -2,016 Descending Seattle Center
Mon 07:38:16 PM 46.7128 -120.5358 290° West 371 427 25,800 -1,869 Descending Seattle Center
Mon 07:39:17 PM 46.7442 -120.6703 289° West 358 412 23,900 -1,770 Descending Seattle Center
Mon 07:40:18 PM 46.7753 -120.8019 289° West 348 400 22,200 -1,721 Descending Seattle Center
Mon 07:41:19 PM 46.8061 -120.9319 289° West 338 389 20,400 -1,820 Descending Seattle Center
Mon 07:42:20 PM 46.8522 -121.0419 302° West 320 368 18,500 -2,016 Descending Seattle Center
Mon 07:43:21 PM 46.9133 -121.1672 306° West 322 371 16,300 -2,066 Descending Seattle Center
Mon 07:44:22 PM 46.9656 -121.2792 304° West 329 379 14,300 -1,897 Descending Seattle Center
Mon 07:45:37 PM 47.0267 -121.4133 304° West 321 369 12,000 -1,574 Descending Seattle Center
Mon 07:46:24 PM 47.0633 -121.4903 305° West 314 361 11,100 -612 Descending Seattle Center
Mon 07:47:15 PM 47.1044 -121.5817 303° West 279 321 11,000 -679 Descending Seattle Center
Mon 07:48:10 PM 47.1428 -121.6681 303° West 279 321 9,900 -1,099 Descending Seattle Center
Mon 07:48:26 PM 47.1492 -121.6811 306° West 278 320 9,700 -1,400 Descending Seattle Center
Mon 07:49:10 PM 47.1878 -121.7639 304° West 279 321 8,500 -1,355 Descending Seattle Center
Mon 07:49:28 PM 47.1922 -121.7744 302° West 278 320 8,300 -1,475 Descending Seattle Center
Mon 07:50:11 PM 47.2306 -121.8511 306° West 280 322 7,000 -1,377 Descending Seattle Center
Mon 07:50:29 PM 47.2389 -121.8650 311° West 279 321 6,900 -1,091 Descending Seattle Center
Mon 07:51:06 PM 47.2753 -121.9375 307° West 274 315 6,000 -1,082 Descending Seattle Center
Mon 07:51:30 PM 47.2836 -121.9553 305° West 277 319 5,800 -1,367 Descending Seattle Center
Mon 07:52:25 PM 47.3283 -122.0486 305° West 255 293 4,200 -1,691 Descending Seattle Center
Mon 07:53:20 PM 47.3667 -122.1289 305° West 244 281 2,700 -983 Descending Seattle Center
Mon 07:54:21 PM 47.4014 -122.1947 308° West 180 207 2,300 -375 Descending Seattle Center
Mon 07:55:28 PM 47.4464 -122.2319 331° Northwest 147 169 1,900 -600 Descending Seattle Center
Mon 07:56:11 PM 47.4700 -122.2550 327° Northwest 137 158 1,200 -806 Descending Seattle Center
Mon 07:56:35 PM 47.4792 -122.2614 335° Northwest 140 161 1,000 -635 Descending Seattle Center
Mon 07:57:36 PM 47.5094 -122.2861 331° Northwest 127 146 300 -443 Descending Seattle Center
Mon 07:58:37 PM 47.5400 -122.3111 331° Northwest 127 146 100 -197 Descending Seattle Center

Login

Don't have an account? Register now (free) for customized features, flight alerts, and more!